sensor_id;sensor_type;location;lat;lon;timestamp;pressure;altitude;pressure_sealevel;temperature;humidity
60852;BME280;48553;50.766;2.900;2023-03-23T00:01:19;99520.47;;;10.76;95.93
60852;BME280;48553;50.766;2.900;2023-03-23T00:04:20;99532.69;;;10.79;95.69
60852;BME280;48553;50.766;2.900;2023-03-23T00:07:22;99532.25;;;10.77;95.91
60852;BME280;48553;50.766;2.900;2023-03-23T00:10:24;99511.91;;;10.78;95.67
60852;BME280;48553;50.766;2.900;2023-03-23T00:13:28;99495.41;;;10.74;95.70
60852;BME280;48553;50.766;2.900;2023-03-23T00:16:31;99510.63;;;10.72;95.77
60852;BME280;48553;50.766;2.900;2023-03-23T00:19:32;99518.47;;;10.73;95.69
60852;BME280;48553;50.766;2.900;2023-03-23T00:22:32;99534.94;;;10.73;95.54
60852;BME280;48553;50.766;2.900;2023-03-23T00:25:37;99514.97;;;10.73;95.55
60852;BME280;48553;50.766;2.900;2023-03-23T00:28:38;99525.13;;;10.72;95.52
60852;BME280;48553;50.766;2.900;2023-03-23T00:31:40;99527.06;;;10.72;95.53
60852;BME280;48553;50.766;2.900;2023-03-23T00:34:41;99521.97;;;10.70;95.72
60852;BME280;48553;50.766;2.900;2023-03-23T00:37:43;99517.28;;;10.71;95.56
60852;BME280;48553;50.766;2.900;2023-03-23T00:40:44;99513.75;;;10.70;95.68
60852;BME280;48553;50.766;2.900;2023-03-23T00:43:44;99504.31;;;10.68;96.04
60852;BME280;48553;50.766;2.900;2023-03-23T00:46:48;99503.50;;;10.67;95.98
60852;BME280;48553;50.766;2.900;2023-03-23T00:49:49;99499.63;;;10.68;95.98
60852;BME280;48553;50.766;2.900;2023-03-23T00:52:52;99492.63;;;10.71;95.83
60852;BME280;48553;50.766;2.900;2023-03-23T00:55:55;99487.13;;;10.71;95.67
60852;BME280;48553;50.766;2.900;2023-03-23T00:58:56;99479.22;;;10.65;96.11
60852;BME280;48553;50.766;2.900;2023-03-23T01:01:56;99471.78;;;10.66;96.08
60852;BME280;48553;50.766;2.900;2023-03-23T01:04:57;99486.28;;;10.66;95.87
60852;BME280;48553;50.766;2.900;2023-03-23T01:07:58;99469.47;;;10.68;95.90
60852;BME280;48553;50.766;2.900;2023-03-23T01:11:06;99474.53;;;10.66;95.94
60852;BME280;48553;50.766;2.900;2023-03-23T01:14:07;99469.47;;;10.68;95.90
60852;BME280;48553;50.766;2.900;2023-03-23T01:17:07;99474.97;;;10.68;95.68
60852;BME280;48553;50.766;2.900;2023-03-23T01:20:08;99481.59;;;10.67;95.67
60852;BME280;48553;50.766;2.900;2023-03-23T01:23:09;99483.13;;;10.64;95.67
60852;BME280;48553;50.766;2.900;2023-03-23T01:26:18;99502.72;;;10.66;95.37
60852;BME280;48553;50.766;2.900;2023-03-23T01:29:20;99506.25;;;10.67;95.27
60852;BME280;48553;50.766;2.900;2023-03-23T01:32:20;99505.09;;;10.68;95.30
60852;BME280;48553;50.766;2.900;2023-03-23T01:35:21;99505.47;;;10.66;95.55
60852;BME280;48553;50.766;2.900;2023-03-23T01:38:21;99507.00;;;10.64;95.74
60852;BME280;48553;50.766;2.900;2023-03-23T01:41:22;99509.38;;;10.65;95.48
60852;BME280;48553;50.766;2.900;2023-03-23T01:47:23;99507.78;;;10.64;95.58
60852;BME280;48553;50.766;2.900;2023-03-23T01:50:28;99497.19;;;10.63;95.87
60852;BME280;48553;50.766;2.900;2023-03-23T01:53:36;99501.56;;;10.68;95.23
60852;BME280;48553;50.766;2.900;2023-03-23T01:56:41;99502.34;;;10.68;95.17
60852;BME280;48553;50.766;2.900;2023-03-23T01:59:48;99489.81;;;10.67;95.33
60852;BME280;48553;50.766;2.900;2023-03-23T02:02:50;99492.94;;;10.65;95.36
60852;BME280;48553;50.766;2.900;2023-03-23T02:05:53;99482.31;;;10.64;95.41
60852;BME280;48553;50.766;2.900;2023-03-23T02:08:55;99477.28;;;10.66;95.41
60852;BME280;48553;50.766;2.900;2023-03-23T02:11:56;99480.00;;;10.66;95.29
60852;BME280;48553;50.766;2.900;2023-03-23T02:14:57;99490.63;;;10.68;95.14
60852;BME280;48553;50.766;2.900;2023-03-23T02:18:38;99486.28;;;10.66;95.02
60852;BME280;48553;50.766;2.900;2023-03-23T02:35:28;99500.34;;;10.65;94.76
60852;BME280;48553;50.766;2.900;2023-03-23T02:38:40;99494.50;;;10.66;94.88
60852;BME280;48553;50.766;2.900;2023-03-23T02:41:51;99478.41;;;10.65;94.71
60852;BME280;48553;50.766;2.900;2023-03-23T02:44:54;99482.31;;;10.64;95.09
60852;BME280;48553;50.766;2.900;2023-03-23T02:47:55;99471.00;;;10.65;94.98
60852;BME280;48553;50.766;2.900;2023-03-23T02:50:57;99478.84;;;10.67;94.63
60852;BME280;48553;50.766;2.900;2023-03-23T02:54:01;99483.53;;;10.66;94.97
60852;BME280;48553;50.766;2.900;2023-03-23T02:57:03;99480.38;;;10.64;94.77
60852;BME280;48553;50.766;2.900;2023-03-23T03:00:06;99494.50;;;10.66;94.73
60852;BME280;48553;50.766;2.900;2023-03-23T03:03:13;99495.66;;;10.65;94.63
60852;BME280;48553;50.766;2.900;2023-03-23T03:06:24;99490.19;;;10.65;94.67
60852;BME280;48553;50.766;2.900;2023-03-23T03:09:47;99478.84;;;10.67;94.64
60852;BME280;48553;50.766;2.900;2023-03-23T03:16:05;99467.88;;;10.67;94.31
60852;BME280;48553;50.766;2.900;2023-03-23T03:22:08;99478.81;;;10.63;94.42
60852;BME280;48553;50.766;2.900;2023-03-23T03:25:11;99481.97;;;10.65;94.36
60852;BME280;48553;50.766;2.900;2023-03-23T03:28:19;99483.50;;;10.63;94.31
60852;BME280;48553;50.766;2.900;2023-03-23T03:31:28;99478.41;;;10.65;94.30
60852;BME280;48553;50.766;2.900;2023-03-23T03:34:29;99479.94;;;10.62;94.25
60852;BME280;48553;50.766;2.900;2023-03-23T03:37:37;99472.13;;;10.61;94.46
60852;BME280;48553;50.766;2.900;2023-03-23T03:40:38;99481.91;;;10.62;94.33
60852;BME280;48553;50.766;2.900;2023-03-23T03:43:39;99485.84;;;10.64;94.12
60852;BME280;48553;50.766;2.900;2023-03-23T03:46:39;99472.53;;;10.63;94.09
60852;BME280;48553;50.766;2.900;2023-03-23T03:49:39;99481.53;;;10.63;94.02
60852;BME280;48553;50.766;2.900;2023-03-23T03:52:40;99480.34;;;10.61;94.05
60852;BME280;48553;50.766;2.900;2023-03-23T03:55:41;99490.13;;;10.62;94.10
60852;BME280;48553;50.766;2.900;2023-03-23T03:58:45;99480.34;;;10.61;94.25
60852;BME280;48553;50.766;2.900;2023-03-23T04:01:48;99479.13;;;10.58;94.47
60852;BME280;48553;50.766;2.900;2023-03-23T04:04:54;99480.25;;;10.57;94.73
60852;BME280;48553;50.766;2.900;2023-03-23T04:07:54;99492.44;;;10.60;94.37
60852;BME280;48553;50.766;2.900;2023-03-23T04:11:01;99487.34;;;10.58;94.85
60852;BME280;48553;50.766;2.900;2023-03-23T04:14:02;99488.91;;;10.59;94.81
60852;BME280;48553;50.766;2.900;2023-03-23T04:17:02;99494.75;;;10.58;95.33
60852;BME280;48553;50.766;2.900;2023-03-23T04:20:04;99497.91;;;10.60;95.24
60852;BME280;48553;50.766;2.900;2023-03-23T04:23:35;99497.47;;;10.58;95.31
60852;BME280;48553;50.766;2.900;2023-03-23T04:26:35;99500.59;;;10.56;95.85
60852;BME280;48553;50.766;2.900;2023-03-23T04:29:36;99518.63;;;10.57;96.01
60852;BME280;48553;50.766;2.900;2023-03-23T04:32:36;99522.53;;;10.56;95.81
60852;BME280;48553;50.766;2.900;2023-03-23T04:35:42;99527.94;;;10.53;96.39
60852;BME280;48553;50.766;2.900;2023-03-23T04:38:42;99528.69;;;10.50;96.29
60852;BME280;48553;50.766;2.900;2023-03-23T04:41:43;99538.84;;;10.49;95.86
60852;BME280;48553;50.766;2.900;2023-03-23T04:44:44;99524.28;;;10.45;95.40
60852;BME280;48553;50.766;2.900;2023-03-23T04:47:53;99545.03;;;10.46;95.42
60852;BME280;48553;50.766;2.900;2023-03-23T04:50:57;99561.81;;;10.44;95.49
60852;BME280;48553;50.766;2.900;2023-03-23T04:53:59;99545.78;;;10.43;94.89
60852;BME280;48553;50.766;2.900;2023-03-23T04:57:00;99567.59;;;10.39;95.08
60852;BME280;48553;50.766;2.900;2023-03-23T05:00:02;99560.88;;;10.33;95.21
60852;BME280;48553;50.766;2.900;2023-03-23T05:03:09;99556.88;;;10.31;95.05
60852;BME280;48553;50.766;2.900;2023-03-23T05:06:10;99558.84;;;10.30;94.92
60852;BME280;48553;50.766;2.900;2023-03-23T05:09:11;99561.13;;;10.28;94.62
60852;BME280;48553;50.766;2.900;2023-03-23T05:12:12;99551.69;;;10.25;94.56
60852;BME280;48553;50.766;2.900;2023-03-23T05:15:15;99568.91;;;10.26;94.46
60852;BME280;48553;50.766;2.900;2023-03-23T05:18:16;99573.53;;;10.22;94.67
60852;BME280;48553;50.766;2.900;2023-03-23T05:21:16;99563.38;;;10.22;94.37
60852;BME280;48553;50.766;2.900;2023-03-23T05:24:16;99565.25;;;10.18;94.64
60852;BME280;48553;50.766;2.900;2023-03-23T05:27:18;99568.78;;;10.19;94.55
60852;BME280;48553;50.766;2.900;2023-03-23T05:30:20;99568.72;;;10.15;94.40
60852;BME280;48553;50.766;2.900;2023-03-23T05:33:21;99566.31;;;10.14;94.69
60852;BME280;48553;50.766;2.900;2023-03-23T05:36:22;99580.03;;;10.14;94.42
60852;BME280;48553;50.766;2.900;2023-03-23T05:39:23;99567.06;;;10.11;94.65
60852;BME280;48553;50.766;2.900;2023-03-23T05:42:23;99574.91;;;10.12;94.53
60852;BME280;48553;50.766;2.900;2023-03-23T05:45:24;99572.53;;;10.11;94.66
60852;BME280;48553;50.766;2.900;2023-03-23T05:48:25;99572.88;;;10.09;94.48
60852;BME280;48553;50.766;2.900;2023-03-23T05:51:26;99578.00;;;10.11;94.53
60852;BME280;48553;50.766;2.900;2023-03-23T05:54:27;99575.63;;;10.09;94.53
60852;BME280;48553;50.766;2.900;2023-03-23T05:57:28;99560.72;;;10.07;94.37
60852;BME280;48553;50.766;2.900;2023-03-23T06:00:28;99566.19;;;10.07;94.67
60852;BME280;48553;50.766;2.900;2023-03-23T06:03:30;99581.84;;;10.06;94.79
60852;BME280;48553;50.766;2.900;2023-03-23T06:06:30;99579.09;;;10.06;94.75
60852;BME280;48553;50.766;2.900;2023-03-23T06:09:32;99578.66;;;10.04;94.92
60852;BME280;48553;50.766;2.900;2023-03-23T06:12:32;99584.94;;;10.04;95.02
60852;BME280;48553;50.766;2.900;2023-03-23T06:15:33;99586.88;;;10.04;94.80
60852;BME280;48553;50.766;2.900;2023-03-23T06:18:34;99581.84;;;10.06;94.63
60852;BME280;48553;50.766;2.900;2023-03-23T06:21:37;99584.50;;;10.02;94.76
60852;BME280;48553;50.766;2.900;2023-03-23T06:24:37;99593.88;;;10.01;94.92
60852;BME280;48553;50.766;2.900;2023-03-23T06:27:38;99597.75;;;10.00;94.86
60852;BME280;48553;50.766;2.900;2023-03-23T06:30:39;99617.00;;;10.04;94.57
60852;BME280;48553;50.766;2.900;2023-03-23T06:33:40;99611.88;;;10.02;94.74
60852;BME280;48553;50.766;2.900;2023-03-23T06:36:41;99618.84;;;10.00;94.80
60852;BME280;48553;50.766;2.900;2023-03-23T06:39:43;99613.72;;;9.98;94.68
60852;BME280;48553;50.766;2.900;2023-03-23T06:42:44;99607.03;;;9.96;94.94
60852;BME280;48553;50.766;2.900;2023-03-23T06:45:44;99625.41;;;9.95;94.87
60852;BME280;48553;50.766;2.900;2023-03-23T06:48:45;99612.94;;;9.98;94.77
60852;BME280;48553;50.766;2.900;2023-03-23T06:51:49;99626.97;;;9.96;94.89
60852;BME280;48553;50.766;2.900;2023-03-23T06:54:51;99628.50;;;9.94;94.98
60852;BME280;48553;50.766;2.900;2023-03-23T06:57:51;99625.41;;;9.95;94.99
60852;BME280;48553;50.766;2.900;2023-03-23T07:00:56;99634.31;;;9.92;94.97
60852;BME280;48553;50.766;2.900;2023-03-23T07:03:56;99625.75;;;9.94;95.05
60852;BME280;48553;50.766;2.900;2023-03-23T07:06:57;99620.72;;;9.96;94.84
60852;BME280;48553;50.766;2.900;2023-03-23T07:09:58;99638.66;;;9.93;94.88
60852;BME280;48553;50.766;2.900;2023-03-23T07:12:58;99633.53;;;9.92;94.88
60852;BME280;48553;50.766;2.900;2023-03-23T07:15:59;99637.88;;;9.93;94.58
60852;BME280;48553;50.766;2.900;2023-03-23T07:19:00;99626.97;;;9.96;94.44
60852;BME280;48553;50.766;2.900;2023-03-23T07:22:01;99641.03;;;9.95;94.44
60852;BME280;48553;50.766;2.900;2023-03-23T07:25:01;99636.34;;;9.95;94.44
60852;BME280;48553;50.766;2.900;2023-03-23T07:28:02;99637.22;;;9.99;94.42
60852;BME280;48553;50.766;2.900;2023-03-23T07:31:03;99643.13;;;10.01;94.26
60852;BME280;48553;50.766;2.900;2023-03-23T07:34:04;99638.81;;;10.00;94.75
60852;BME280;48553;50.766;2.900;2023-03-23T07:37:04;99640.41;;;10.01;94.32
60852;BME280;48553;50.766;2.900;2023-03-23T07:40:06;99642.41;;;10.04;94.41
60852;BME280;48553;50.766;2.900;2023-03-23T07:43:14;99640.53;;;10.09;94.18
60852;BME280;48553;50.766;2.900;2023-03-23T07:46:15;99645.38;;;10.15;94.09
60852;BME280;48553;50.766;2.900;2023-03-23T07:49:16;99654.81;;;10.18;94.16
60852;BME280;48553;50.766;2.900;2023-03-23T07:52:17;99641.13;;;10.18;94.13
60852;BME280;48553;50.766;2.900;2023-03-23T07:55:17;99642.47;;;10.28;94.52
60852;BME280;48553;50.766;2.900;2023-03-23T07:58:18;99642.34;;;10.40;94.06
60852;BME280;48553;50.766;2.900;2023-03-23T08:01:19;99641.03;;;10.53;93.51
60852;BME280;48553;50.766;2.900;2023-03-23T08:04:19;99651.91;;;10.69;93.49
60852;BME280;48553;50.766;2.900;2023-03-23T08:07:20;99655.28;;;10.82;92.82
60852;BME280;48553;50.766;2.900;2023-03-23T08:10:22;99665.63;;;10.92;92.83
60852;BME280;48553;50.766;2.900;2023-03-23T08:13:23;99663.47;;;11.01;92.86
60852;BME280;48553;50.766;2.900;2023-03-23T08:16:24;99672.22;;;11.11;92.95
60852;BME280;48553;50.766;2.900;2023-03-23T08:19:25;99663.03;;;11.22;93.13
60852;BME280;48553;50.766;2.900;2023-03-23T08:22:27;99668.72;;;11.37;93.15
60852;BME280;48553;50.766;2.900;2023-03-23T08:25:30;99673.06;;;11.38;93.93
60852;BME280;48553;50.766;2.900;2023-03-23T08:28:34;99671.59;;;11.44;93.73
60852;BME280;48553;50.766;2.900;2023-03-23T08:31:35;99678.44;;;11.57;93.31
60852;BME280;48553;50.766;2.900;2023-03-23T08:34:37;99676.31;;;11.70;93.38
60852;BME280;48553;50.766;2.900;2023-03-23T08:37:39;99674.13;;;11.83;93.59
60852;BME280;48553;50.766;2.900;2023-03-23T08:40:41;99679.44;;;11.95;93.55
60852;BME280;48553;50.766;2.900;2023-03-23T08:43:43;99681.16;;;12.07;93.24
60852;BME280;48553;50.766;2.900;2023-03-23T08:46:43;99688.00;;;12.20;92.90
60852;BME280;48553;50.766;2.900;2023-03-23T08:49:44;99681.53;;;12.36;92.76
60852;BME280;48553;50.766;2.900;2023-03-23T08:52:45;99666.34;;;12.49;92.68
60852;BME280;48553;50.766;2.900;2023-03-23T08:55:48;99670.81;;;12.61;92.93
60852;BME280;48553;50.766;2.900;2023-03-23T08:58:49;99677.22;;;12.72;91.72
60852;BME280;48553;50.766;2.900;2023-03-23T09:01:50;99682.50;;;12.88;91.23
60852;BME280;48553;50.766;2.900;2023-03-23T09:04:50;99676.28;;;12.98;91.66
60852;BME280;48553;50.766;2.900;2023-03-23T09:07:52;99681.53;;;13.10;91.05
60852;BME280;48553;50.766;2.900;2023-03-23T09:10:53;99681.59;;;13.21;91.00
60852;BME280;48553;50.766;2.900;2023-03-23T09:13:53;99664.84;;;13.33;90.34
60852;BME280;48553;50.766;2.900;2023-03-23T09:16:54;99682.94;;;13.34;90.80
60852;BME280;48553;50.766;2.900;2023-03-23T09:19:54;99676.69;;;13.38;90.96
60852;BME280;48553;50.766;2.900;2023-03-23T09:22:56;99679.81;;;13.36;91.37
60852;BME280;48553;50.766;2.900;2023-03-23T09:26:00;99671.22;;;13.45;90.54
60852;BME280;48553;50.766;2.900;2023-03-23T09:29:00;99666.22;;;13.61;90.44
60852;BME280;48553;50.766;2.900;2023-03-23T09:32:01;99660.75;;;13.68;89.72
60852;BME280;48553;50.766;2.900;2023-03-23T09:35:02;99662.34;;;13.69;90.30
60852;BME280;48553;50.766;2.900;2023-03-23T09:38:04;99672.16;;;13.63;90.65
60852;BME280;48553;50.766;2.900;2023-03-23T09:48:33;99673.84;;;13.30;91.43
60852;BME280;48553;50.766;2.900;2023-03-23T09:51:56;99686.69;;;13.19;90.45
60852;BME280;48553;50.766;2.900;2023-03-23T09:54:58;99684.66;;;13.12;91.11
60852;BME280;48553;50.766;2.900;2023-03-23T10:01:31;99693.44;;;13.22;90.23
60852;BME280;48553;50.766;2.900;2023-03-23T10:04:44;99678.13;;;13.24;90.09
60852;BME280;48553;50.766;2.900;2023-03-23T10:07:45;99681.59;;;13.18;90.17
60852;BME280;48553;50.766;2.900;2023-03-23T10:17:23;99699.19;;;13.06;90.06
60852;BME280;48553;50.766;2.900;2023-03-23T10:20:45;99697.16;;;13.03;90.22
60852;BME280;48553;50.766;2.900;2023-03-23T10:24:00;99696.75;;;13.01;90.53
60852;BME280;48553;50.766;2.900;2023-03-23T10:27:13;99692.44;;;13.00;90.51
60852;BME280;48553;50.766;2.900;2023-03-23T10:31:10;99696.75;;;13.01;89.91
60852;BME280;48553;50.766;2.900;2023-03-23T10:33:53;99683.41;;;12.99;90.08
60852;BME280;48553;50.766;2.900;2023-03-23T10:40:06;99693.91;;;12.90;90.26
60852;BME280;48553;50.766;2.900;2023-03-23T10:43:13;99690.69;;;12.84;90.40
60852;BME280;48553;50.766;2.900;2023-03-23T10:46:25;99687.91;;;12.81;90.69
60852;BME280;48553;50.766;2.900;2023-03-23T10:49:38;99692.59;;;12.77;90.60
60852;BME280;48553;50.766;2.900;2023-03-23T10:52:42;99682.44;;;12.84;90.49
60852;BME280;48553;50.766;2.900;2023-03-23T10:55:43;99693.56;;;12.95;90.15
60852;BME280;48553;50.766;2.900;2023-03-23T10:58:47;99697.09;;;12.95;90.49
60852;BME280;48553;50.766;2.900;2023-03-23T11:01:51;99697.47;;;12.94;90.63
60852;BME280;48553;50.766;2.900;2023-03-23T11:04:58;99689.16;;;13.28;89.50
60852;BME280;48553;50.766;2.900;2023-03-23T11:08:00;99684.59;;;13.43;89.39
60852;BME280;48553;50.766;2.900;2023-03-23T11:11:16;99673.56;;;13.43;89.45
60852;BME280;48553;50.766;2.900;2023-03-23T11:14:27;99678.31;;;13.46;89.13
60852;BME280;48553;50.766;2.900;2023-03-23T11:17:28;99681.50;;;13.51;87.21
60852;BME280;48553;50.766;2.900;2023-03-23T11:20:35;99679.53;;;13.52;86.97
60852;BME280;48553;50.766;2.900;2023-03-23T11:23:39;99683.91;;;13.56;86.42
60852;BME280;48553;50.766;2.900;2023-03-23T11:26:44;99695.38;;;13.66;85.91
60852;BME280;48553;50.766;2.900;2023-03-23T11:29:58;99681.97;;;13.61;86.26
60852;BME280;48553;50.766;2.900;2023-03-23T11:33:01;99689.38;;;13.53;86.13
60852;BME280;48553;50.766;2.900;2023-03-23T11:36:03;99697.94;;;13.44;86.72
60852;BME280;48553;50.766;2.900;2023-03-23T11:39:34;99702.19;;;13.34;86.48
60852;BME280;48553;50.766;2.900;2023-03-23T11:46:27;99699.81;;;13.81;84.05
60852;BME280;48553;50.766;2.900;2023-03-23T11:49:42;99668.47;;;14.07;83.77
60852;BME280;48553;50.766;2.900;2023-03-23T11:59:34;99674.00;;;14.14;83.92
60852;BME280;48553;50.766;2.900;2023-03-23T12:02:59;99675.69;;;14.33;83.19
60852;BME280;48553;50.766;2.900;2023-03-23T12:06:07;99657.28;;;14.63;83.36
60852;BME280;48553;50.766;2.900;2023-03-23T12:21:58;99699.13;;;14.90;80.78
60852;BME280;48553;50.766;2.900;2023-03-23T12:45:21;99717.63;;;14.96;80.01
60852;BME280;48553;50.766;2.900;2023-03-23T12:48:28;99706.28;;;15.19;79.54
60852;BME280;48553;50.766;2.900;2023-03-23T12:51:33;99716.16;;;15.42;78.52
60852;BME280;48553;50.766;2.900;2023-03-23T12:54:50;99717.31;;;15.48;79.86
60852;BME280;48553;50.766;2.900;2023-03-23T12:57:59;99715.34;;;15.52;79.78
60852;BME280;48553;50.766;2.900;2023-03-23T13:01:21;99694.03;;;15.67;79.94
60852;BME280;48553;50.766;2.900;2023-03-23T13:04:32;99688.50;;;15.92;79.31
60852;BME280;48553;50.766;2.900;2023-03-23T13:07:43;99684.06;;;16.16;78.26
60852;BME280;48553;50.766;2.900;2023-03-23T13:10:50;99676.91;;;16.29;78.27
60852;BME280;48553;50.766;2.900;2023-03-23T13:13:54;99674.91;;;16.37;78.48
60852;BME280;48553;50.766;2.900;2023-03-23T13:20:40;99644.00;;;16.60;77.61
60852;BME280;48553;50.766;2.900;2023-03-23T13:23:46;99651.03;;;16.68;77.46
60852;BME280;48553;50.766;2.900;2023-03-23T13:26:50;99649.09;;;16.65;77.39
60852;BME280;48553;50.766;2.900;2023-03-23T13:29:50;99640.88;;;16.51;77.31
60852;BME280;48553;50.766;2.900;2023-03-23T13:32:51;99640.63;;;16.24;78.53
60852;BME280;48553;50.766;2.900;2023-03-23T13:35:53;99622.75;;;16.39;78.30
60852;BME280;48553;50.766;2.900;2023-03-23T13:38:53;99619.50;;;16.55;77.65
60852;BME280;48553;50.766;2.900;2023-03-23T13:45:42;99620.97;;;16.74;77.40
60852;BME280;48553;50.766;2.900;2023-03-23T13:48:49;99623.28;;;16.86;76.85
60852;BME280;48553;50.766;2.900;2023-03-23T13:51:59;99629.47;;;17.05;75.83
60852;BME280;48553;50.766;2.900;2023-03-23T13:58:24;99606.88;;;17.14;76.25
60852;BME280;48553;50.766;2.900;2023-03-23T14:01:37;99605.16;;;17.27;75.63
60852;BME280;48553;50.766;2.900;2023-03-23T14:04:39;99604.81;;;17.21;75.81
60852;BME280;48553;50.766;2.900;2023-03-23T14:11:12;99590.78;;;17.01;75.64
60852;BME280;48553;50.766;2.900;2023-03-23T14:14:50;99564.41;;;16.82;75.96
60852;BME280;48553;50.766;2.900;2023-03-23T14:17:51;99566.06;;;16.69;75.77
60852;BME280;48553;50.766;2.900;2023-03-23T14:20:51;99554.22;;;16.68;75.67
60852;BME280;48553;50.766;2.900;2023-03-23T14:23:52;99557.44;;;16.60;76.17
60852;BME280;48553;50.766;2.900;2023-03-23T14:27:09;99551.56;;;16.50;77.13
60852;BME280;48553;50.766;2.900;2023-03-23T14:30:15;99542.06;;;16.55;76.42
60852;BME280;48553;50.766;2.900;2023-03-23T14:33:16;99546.03;;;16.54;75.54
60852;BME280;48553;50.766;2.900;2023-03-23T14:36:26;99533.41;;;16.49;75.53
60852;BME280;48553;50.766;2.900;2023-03-23T14:39:29;99539.81;;;16.36;75.34
60852;BME280;48553;50.766;2.900;2023-03-23T14:42:32;99530.41;;;16.26;76.93
60852;BME280;48553;50.766;2.900;2023-03-23T14:45:33;99542.31;;;16.19;76.66
60852;BME280;48553;50.766;2.900;2023-03-23T14:48:35;99554.97;;;16.13;75.94
60852;BME280;48553;50.766;2.900;2023-03-23T14:51:37;99557.78;;;16.06;77.35
60852;BME280;48553;50.766;2.900;2023-03-23T14:54:38;99561.75;;;15.98;77.59
60852;BME280;48553;50.766;2.900;2023-03-23T14:57:41;99555.06;;;15.92;77.26
60852;BME280;48553;50.766;2.900;2023-03-23T15:00:56;99560.63;;;15.88;77.68
60852;BME280;48553;50.766;2.900;2023-03-23T15:04:03;99552.75;;;15.79;77.78
60852;BME280;48553;50.766;2.900;2023-03-23T15:07:06;99566.97;;;15.67;78.32
60852;BME280;48553;50.766;2.900;2023-03-23T15:10:09;99559.88;;;15.59;78.24
60852;BME280;48553;50.766;2.900;2023-03-23T15:13:16;99566.22;;;15.52;78.92
60852;BME280;48553;50.766;2.900;2023-03-23T15:16:22;99554.41;;;15.44;78.97
60852;BME280;48553;50.766;2.900;2023-03-23T15:19:36;99546.13;;;15.41;79.14
60852;BME280;48553;50.766;2.900;2023-03-23T15:22:45;99536.28;;;15.36;78.73
60852;BME280;48553;50.766;2.900;2023-03-23T15:25:54;99544.16;;;15.38;78.82
60852;BME280;48553;50.766;2.900;2023-03-23T15:32:13;99538.66;;;15.34;78.34
60852;BME280;48553;50.766;2.900;2023-03-23T15:35:19;99536.28;;;15.25;78.87
60852;BME280;48553;50.766;2.900;2023-03-23T15:41:27;99525.28;;;15.15;79.76
60852;BME280;48553;50.766;2.900;2023-03-23T15:44:33;99528.06;;;15.11;80.73
60852;BME280;48553;50.766;2.900;2023-03-23T15:50:42;99517.41;;;15.06;80.25
60852;BME280;48553;50.766;2.900;2023-03-23T15:53:43;99526.09;;;15.04;80.22
60852;BME280;48553;50.766;2.900;2023-03-23T15:56:44;99526.50;;;14.99;80.58
60852;BME280;48553;50.766;2.900;2023-03-23T15:59:45;99517.03;;;14.97;81.35
60852;BME280;48553;50.766;2.900;2023-03-23T16:02:46;99511.50;;;14.93;80.35
60852;BME280;48553;50.766;2.900;2023-03-23T16:05:48;99516.25;;;14.89;80.82
60852;BME280;48553;50.766;2.900;2023-03-23T16:08:49;99507.56;;;14.87;80.99
60852;BME280;48553;50.766;2.900;2023-03-23T16:11:50;99507.97;;;14.86;81.29
60852;BME280;48553;50.766;2.900;2023-03-23T16:14:50;99499.69;;;14.82;81.13
60852;BME280;48553;50.766;2.900;2023-03-23T16:17:50;99499.72;;;14.78;80.71
60852;BME280;48553;50.766;2.900;2023-03-23T16:20:51;99488.28;;;14.76;81.81
60852;BME280;48553;50.766;2.900;2023-03-23T16:23:52;99485.91;;;14.75;80.91
60852;BME280;48553;50.766;2.900;2023-03-23T16:26:53;99476.06;;;14.70;81.23
60852;BME280;48553;50.766;2.900;2023-03-23T16:29:53;99466.59;;;14.71;81.76
60852;BME280;48553;50.766;2.900;2023-03-23T16:32:54;99470.94;;;14.69;81.59
60852;BME280;48553;50.766;2.900;2023-03-23T16:35:55;99470.53;;;14.67;81.98
60852;BME280;48553;50.766;2.900;2023-03-23T16:38:57;99463.47;;;14.62;81.61
60852;BME280;48553;50.766;2.900;2023-03-23T16:41:57;99455.19;;;14.62;81.88
60852;BME280;48553;50.766;2.900;2023-03-23T16:44:58;99446.53;;;14.60;81.68
60852;BME280;48553;50.766;2.900;2023-03-23T16:47:58;99442.59;;;14.57;81.89
60852;BME280;48553;50.766;2.900;2023-03-23T16:51:00;99437.47;;;14.56;81.90
60852;BME280;48553;50.766;2.900;2023-03-23T16:54:01;99460.28;;;14.53;81.96
60852;BME280;48553;50.766;2.900;2023-03-23T16:57:01;99439.81;;;14.50;81.96
60852;BME280;48553;50.766;2.900;2023-03-23T17:00:05;99440.59;;;14.47;81.66
60852;BME280;48553;50.766;2.900;2023-03-23T17:03:07;99432.72;;;14.46;82.05
60852;BME280;48553;50.766;2.900;2023-03-23T17:06:08;99437.84;;;14.44;82.06
60852;BME280;48553;50.766;2.900;2023-03-23T17:09:08;99424.47;;;14.42;82.12
60852;BME280;48553;50.766;2.900;2023-03-23T17:12:09;99430.75;;;14.39;81.88
60852;BME280;48553;50.766;2.900;2023-03-23T17:15:11;99418.53;;;14.36;82.26
60852;BME280;48553;50.766;2.900;2023-03-23T17:18:12;99425.25;;;14.32;81.48
60852;BME280;48553;50.766;2.900;2023-03-23T17:21:12;99425.63;;;14.30;82.13
60852;BME280;48553;50.766;2.900;2023-03-23T17:24:13;99431.94;;;14.27;82.35
60852;BME280;48553;50.766;2.900;2023-03-23T17:27:18;99428.78;;;14.22;82.28
60852;BME280;48553;50.766;2.900;2023-03-23T17:30:19;99423.66;;;14.20;82.38
60852;BME280;48553;50.766;2.900;2023-03-23T17:33:20;99423.25;;;14.14;82.51
60852;BME280;48553;50.766;2.900;2023-03-23T17:36:20;99424.06;;;14.11;82.99
60852;BME280;48553;50.766;2.900;2023-03-23T17:39:20;99418.94;;;14.06;83.42
60852;BME280;48553;50.766;2.900;2023-03-23T17:42:21;99418.91;;;14.03;83.39
60852;BME280;48553;50.766;2.900;2023-03-23T17:45:22;99416.56;;;13.97;83.36
60852;BME280;48553;50.766;2.900;2023-03-23T17:48:22;99419.31;;;13.97;83.73
60852;BME280;48553;50.766;2.900;2023-03-23T17:51:22;99416.53;;;13.94;84.25
60852;BME280;48553;50.766;2.900;2023-03-23T17:54:24;99413.38;;;13.92;84.40
60852;BME280;48553;50.766;2.900;2023-03-23T17:57:25;99415.75;;;13.86;84.56
60852;BME280;48553;50.766;2.900;2023-03-23T18:00:25;99414.16;;;13.82;84.75
60852;BME280;48553;50.766;2.900;2023-03-23T18:03:26;99403.56;;;13.76;85.06